EGNV - Tees-Side
Distance from station: E 5mi, 14km
Updated: 10/16/2017 10:50pm
Partly Cloudy
Partly Cloudy
 Wind from SW
Wind: SW 31 mph , 50 km/h, Gust: 44 mph , 70 km/h
Temperature: 54°F , 12°C
Dew Point: 45°F , 7°C
Humidity: 72%
Barometer: 29.74 inHg , 1007 hPa
Clouds: Partly Cloudy
Visibility: 6 miles , 10 km
Cloud details: Few Clouds 2500 ft
Partly Cloudy 3000 ft
2017/10/17 05:50 EGNV 170550Z 23027G38KT 9999 FEW025 SCT030 12/07 Q1007